Time;durP1;ratioP1;P1;durP2;ratioP2;P2;SDS_P1;SDS_P2;PMS_P1;PMS_P2;Temp;Humidity;BMP_temperature;BMP_pressure;BME280_temperature;BME280_humidity;BME280_pressure;Samples;Min_cycle;Max_cycle;Signal;HPM_P1;HPM_P2
2022/05/30 00:01:05;;;;;;;6.00;3.63;;;;;;;20.82;69.51;93985.38;5129381;27;20188;-75
2022/05/30 00:03:32;;;;;;;8.45;4.22;;;;;;;20.80;69.53;93988.97;5119688;27;20584;-77
2022/05/30 00:05:59;;;;;;;4.90;4.00;;;;;;;20.74;69.68;93979.44;5127953;27;20173;-75
2022/05/30 00:08:25;;;;;;;3.67;3.38;;;;;;;20.79;69.73;93991.78;5110652;28;20185;-74
2022/05/30 00:10:52;;;;;;;4.30;3.60;;;;;;;20.75;69.90;93985.44;5130404;27;20220;-72
2022/05/30 00:13:19;;;;;;;4.17;3.77;;;;;;;20.71;69.78;93982.47;5112488;27;20185;-78
2022/05/30 00:15:46;;;;;;;4.17;3.77;;;;;;;20.69;69.74;93981.13;5109805;28;20196;-76
2022/05/30 00:18:14;;;;;;;4.70;3.70;;;;;;;20.68;69.60;93979.50;5109996;28;20205;-77
2022/05/30 00:20:45;;;;;;;5.15;3.72;;;;;;;20.75;69.40;93990.63;5110112;28;20599;-78
2022/05/30 00:23:13;;;;;;;3.63;3.30;;;;;;;20.74;69.48;93991.66;5110594;28;20296;-77
2022/05/30 00:25:40;;;;;;;3.70;3.30;;;;;;;20.70;69.24;93980.09;5126172;27;20192;-79
2022/05/30 00:28:07;;;;;;;4.03;3.63;;;;;;;20.68;69.29;93989.91;5128634;27;20538;-79
2022/05/30 00:30:34;;;;;;;3.27;2.93;;;;;;;20.65;69.12;93982.56;5130682;27;20724;-77
2022/05/30 00:33:01;;;;;;;4.30;3.57;;;;;;;20.65;69.31;93985.16;5123916;27;20185;-78
2022/05/30 00:35:29;;;;;;;3.50;3.20;;;;;;;20.61;69.29;93979.59;5110247;28;20193;-78
2022/05/30 00:37:56;;;;;;;5.40;4.03;;;;;;;20.58;69.38;93987.81;5109624;28;20208;-77
2022/05/30 00:40:23;;;;;;;6.23;3.73;;;;;;;20.56;69.15;93981.28;5121798;27;20192;-76
2022/05/30 00:42:50;;;;;;;4.67;3.27;;;;;;;20.52;69.25;93991.28;5116256;27;20189;-75
2022/05/30 00:45:17;;;;;;;5.83;3.30;;;;;;;20.47;69.25;93989.31;5113643;28;20189;-77
2022/05/30 00:47:44;;;;;;;4.07;3.30;;;;;;;20.45;69.32;93990.53;5113519;28;20193;-78
2022/05/30 00:50:12;;;;;;;4.10;3.63;;;;;;;20.43;69.32;93995.16;5113590;28;20236;-77
2022/05/30 00:52:44;;;;;;;5.00;3.80;;;;;;;20.39;69.33;93986.22;5113075;28;20189;-78
2022/05/30 00:55:15;;;;;;;4.70;3.90;;;;;;;20.39;69.22;93997.38;5114232;27;20276;-77
2022/05/30 00:57:44;;;;;;;9.50;4.40;;;;;;;20.28;69.20;93983.28;5112965;28;20209;-77
2022/05/30 01:00:16;;;;;;;6.50;4.33;;;;;;;20.34;69.33;93988.66;5113292;28;20662;-79
2022/05/30 01:02:44;;;;;;;6.43;4.07;;;;;;;20.29;69.25;93995.28;5118352;27;20180;-77
2022/05/30 01:08:02;;;;;;;8.27;4.67;;;;;;;20.24;69.10;93995.13;5133572;27;20250;-73
2022/05/30 01:10:29;;;;;;;7.27;4.20;;;;;;;20.21;69.21;93990.38;5121747;27;20578;-77
2022/05/30 01:12:58;;;;;;;6.30;4.17;;;;;;;20.20;69.29;93993.16;5113329;28;20215;-77
2022/05/30 01:15:27;;;;;;;5.73;4.47;;;;;;;20.16;69.26;93992.78;5113194;28;20185;-77
2022/05/30 01:17:59;;;;;;;7.73;4.70;;;;;;;20.13;69.46;93995.03;5112930;28;20299;-77
2022/05/30 01:20:35;;;;;;;7.40;4.37;;;;;;;20.10;69.16;93983.28;5112911;27;20193;-78
2022/05/30 01:23:24;;;;;;;13.03;5.03;;;;;;;20.04;69.06;93986.75;5113122;28;20188;-78
2022/05/30 01:26:26;;;;;;;8.10;5.40;;;;;;;20.07;69.13;94007.06;5132109;27;20200;-78
2022/05/30 01:29:01;;;;;;;7.53;4.90;;;;;;;20.05;69.19;94001.28;5133488;27;20191;-77
2022/05/30 01:31:28;;;;;;;9.70;4.73;;;;;;;20.00;69.10;93991.56;5132063;27;20180;-79
2022/05/30 01:33:55;;;;;;;11.47;5.27;;;;;;;20.01;69.11;94003.53;5133496;27;20184;-79
2022/05/30 01:36:23;;;;;;;8.77;4.83;;;;;;;19.99;69.29;94007.31;5132854;27;20200;-79
2022/05/30 01:38:50;;;;;;;11.07;4.27;;;;;;;19.96;69.29;94016.34;5132212;27;20215;-76
2022/05/30 01:41:17;;;;;;;5.87;4.90;;;;;;;19.95;69.37;94011.38;5132817;27;20208;-78
2022/05/30 01:43:44;;;;;;;8.73;4.60;;;;;;;19.95;69.28;94006.19;5133138;27;20196;-76
2022/05/30 01:46:16;;;;;;;8.53;4.70;;;;;;;19.88;69.28;94001.03;5133558;27;20241;-77
2022/05/30 01:48:45;;;;;;;5.77;4.20;;;;;;;19.92;69.41;94011.78;5132934;27;20292;-80
2022/05/30 01:51:13;;;;;;;4.80;4.10;;;;;;;19.90;69.18;94011.97;5132881;27;20247;-77
2022/05/30 01:53:40;;;;;;;7.03;4.53;;;;;;;19.85;69.37;94001.44;5126620;27;20572;-77
2022/05/30 01:56:07;;;;;;;7.23;3.80;;;;;;;19.87;69.42;94009.03;5116453;28;20201;-77
2022/05/30 01:58:34;;;;;;;6.40;4.80;;;;;;;19.85;69.59;94006.63;5115345;28;20205;-76
2022/05/30 02:01:04;;;;;;;5.43;3.90;;;;;;;19.79;69.50;94003.09;5118677;27;20188;-74
2022/05/30 02:03:33;;;;;;;5.10;4.60;;;;;;;19.80;69.46;94004.69;5132347;27;20185;-77
2022/05/30 02:06:01;;;;;;;8.37;4.30;;;;;;;19.80;69.48;94009.06;5132737;27;20358;-76
2022/05/30 02:08:28;;;;;;;4.50;4.10;;;;;;;19.79;69.58;94012.69;5130554;27;20188;-78
2022/05/30 02:10:55;;;;;;;5.63;4.17;;;;;;;19.76;69.45;94019.06;5132510;27;20257;-78
2022/05/30 02:13:22;;;;;;;6.73;3.63;;;;;;;19.68;69.63;94021.13;5132158;27;20195;-78
2022/05/30 02:18:35;;;;;;;4.47;3.60;;;;;;;19.69;69.72;94033.91;5132118;27;20296;-75
2022/05/30 02:21:01;;;;;;;4.13;3.60;;;;;;;19.67;69.58;94035.13;5130567;27;20188;-75
2022/05/30 02:23:28;;;;;;;7.37;4.20;;;;;;;19.65;69.50;94035.34;5123663;27;20188;-74
2022/05/30 02:25:55;;;;;;;6.13;3.87;;;;;;;19.63;69.40;94029.53;5111318;28;20185;-77
2022/05/30 02:28:22;;;;;;;6.37;4.10;;;;;;;19.62;69.41;94033.16;5111375;28;20273;-78
2022/05/30 02:30:48;;;;;;;9.00;4.00;;;;;;;19.54;69.36;94025.59;5127049;27;20203;-77
2022/05/30 02:39:00;;;;;;;4.63;3.93;;;;;;;19.53;69.38;94036.97;5077407;28;20708;-76
2022/05/30 02:41:27;;;;;;;5.10;3.40;;;;;;;19.51;69.44;94036.38;5088308;28;20190;-77
2022/05/30 02:43:54;;;;;;;4.33;3.60;;;;;;;19.48;69.44;94042.78;5084598;28;20248;-77
2022/05/30 02:46:21;;;;;;;6.27;4.20;;;;;;;19.48;69.40;94045.38;5068206;28;20194;-76
2022/05/30 02:48:47;;;;;;;7.37;3.30;;;;;;;19.47;69.47;94051.56;5067945;28;20237;-73
2022/05/30 02:51:16;;;;;;;4.20;3.73;;;;;;;19.46;69.48;94052.56;5068319;28;20189;-76
2022/05/30 02:53:42;;;;;;;4.67;3.67;;;;;;;19.44;69.34;94053.78;5071300;28;20197;-76
2022/05/30 02:56:12;;;;;;;5.83;3.30;;;;;;;19.44;69.62;94058.97;5088314;28;20190;-78
2022/05/30 02:58:39;;;;;;;4.80;3.80;;;;;;;19.42;69.50;94069.53;5084126;28;20630;-77
2022/05/30 03:01:06;;;;;;;5.17;3.70;;;;;;;19.41;69.54;94069.75;5072401;28;20185;-78
2022/05/30 03:03:33;;;;;;;6.83;3.83;;;;;;;19.40;69.60;94075.94;5087607;28;20197;-76
2022/05/30 03:05:59;;;;;;;5.93;4.07;;;;;;;19.40;69.56;94083.72;5088108;28;20197;-76
2022/05/30 03:08:28;;;;;;;4.37;3.90;;;;;;;19.39;69.75;94082.94;5124109;27;20185;-76
2022/05/30 03:10:55;;;;;;;4.50;3.80;;;;;;;19.35;69.80;94086.16;5110912;28;20200;-77
2022/05/30 03:13:21;;;;;;;6.23;4.50;;;;;;;19.38;69.93;94096.88;5113871;27;20188;-76
2022/05/30 03:15:48;;;;;;;10.63;4.40;;;;;;;19.38;69.75;94096.88;5131052;27;20192;-76
2022/05/30 03:18:15;;;;;;;5.33;3.70;;;;;;;19.35;69.82;94099.91;5128504;27;20200;-77
2022/05/30 03:20:42;;;;;;;8.10;4.50;;;;;;;19.38;69.80;94112.44;5110394;28;20196;-75
2022/05/30 03:23:09;;;;;;;6.80;3.90;;;;;;;19.34;69.85;94106.06;5111518;27;20199;-74
2022/05/30 03:25:37;;;;;;;5.83;3.93;;;;;;;19.33;69.76;94116.66;5131176;27;20195;-77
2022/05/30 03:28:04;;;;;;;4.27;3.87;;;;;;;19.38;69.77;94122.81;5131217;27;20180;-76
2022/05/30 03:30:36;;;;;;;6.17;4.13;;;;;;;19.38;69.80;94122.81;5130377;27;20191;-76
2022/05/30 03:33:03;;;;;;;6.90;4.20;;;;;;;19.39;69.84;94129.59;5131283;27;20208;-75
2022/05/30 03:35:30;;;;;;;11.57;3.83;;;;;;;19.40;69.64;94136.38;5130632;27;20189;-73
2022/05/30 03:37:57;;;;;;;4.97;4.00;;;;;;;19.41;69.67;94137.16;5131209;27;20220;-75
2022/05/30 03:40:24;;;;;;;4.37;3.70;;;;;;;19.48;69.47;94140.53;5112609;27;20197;-76
2022/05/30 03:42:52;;;;;;;6.33;4.07;;;;;;;19.51;69.30;94143.50;5128236;28;20196;-78
2022/05/30 03:45:20;;;;;;;5.17;3.73;;;;;;;19.55;69.13;94143.88;5131028;27;20180;-77
2022/05/30 03:47:48;;;;;;;3.73;3.43;;;;;;;19.62;68.99;94154.28;5130722;27;20192;-78
2022/05/30 03:50:18;;;;;;;6.70;4.17;;;;;;;19.68;68.87;94161.22;5129175;27;20191;-76
2022/05/30 03:52:45;;;;;;;4.47;3.80;;;;;;;19.72;68.67;94157.22;5110282;28;20662;-76
2022/05/30 03:55:15;;;;;;;4.20;3.77;;;;;;;19.77;68.63;94162.56;5122431;27;20192;-77
2022/05/30 03:57:43;;;;;;;4.20;3.77;;;;;;;19.87;68.52;94164.75;5130798;27;20193;-78
2022/05/30 04:00:15;;;;;;;5.03;3.53;;;;;;;19.91;68.34;94171.09;5130551;27;20188;-78
2022/05/30 04:02:43;;;;;;;4.97;3.67;;;;;;;19.96;68.17;94176.47;5130064;27;20184;-79
2022/05/30 04:05:11;;;;;;;4.43;2.97;;;;;;;20.02;67.90;94178.22;5129979;27;20599;-77
2022/05/30 04:07:38;;;;;;;4.90;3.63;;;;;;;20.14;67.61;94178.34;5130957;27;20181;-77
2022/05/30 04:10:06;;;;;;;5.20;3.50;;;;;;;20.21;67.45;94177.31;5130500;27;20199;-76
2022/05/30 04:12:33;;;;;;;3.43;3.13;;;;;;;20.33;67.13;94193.00;5129831;27;20380;-76
2022/05/30 04:15:01;;;;;;;4.40;3.53;;;;;;;20.42;67.02;94191.78;5130572;27;20545;-74
2022/05/30 04:17:33;;;;;;;4.27;3.50;;;;;;;20.45;66.71;94187.94;5134552;27;20184;-73
2022/05/30 04:20:00;;;;;;;6.83;3.57;;;;;;;20.52;66.31;94179.13;5133705;27;20219;-75
2022/05/30 04:22:27;;;;;;;3.80;3.47;;;;;;;20.69;65.95;94194.97;5117453;27;20189;-77
2022/05/30 04:24:55;;;;;;;5.67;3.30;;;;;;;20.75;65.68;94198.53;5123849;27;20191;-75
2022/05/30 04:27:22;;;;;;;7.53;3.63;;;;;;;20.82;65.58;94195.91;5134012;27;20184;-75
2022/05/30 04:29:49;;;;;;;3.50;3.20;;;;;;;20.81;65.66;94189.88;5133944;27;20203;-76
2022/05/30 04:32:17;;;;;;;5.73;3.83;;;;;;;20.93;65.41;94195.97;5130418;27;20216;-79
2022/05/30 04:34:46;;;;;;;3.70;3.40;;;;;;;20.96;65.20;94185.16;5133841;27;20673;-78
2022/05/30 04:37:13;;;;;;;4.50;3.60;;;;;;;21.05;65.11;94188.28;5113517;28;20619;-76
2022/05/30 04:39:39;;;;;;;6.60;3.90;;;;;;;21.10;65.18;94191.03;5131884;27;20238;-76
2022/05/30 04:42:07;;;;;;;6.63;3.97;;;;;;;21.17;65.00;94188.38;5133879;27;20192;-78
2022/05/30 04:44:35;;;;;;;5.77;3.53;;;;;;;21.23;64.96;94184.91;5132513;27;20211;-82
2022/05/30 04:47:02;;;;;;;4.93;4.05;;;;;;;21.28;64.85;94185.81;5133539;27;20670;-84
2022/05/30 04:49:32;;;;;;;5.07;4.30;;;;;;;21.32;64.85;94190.63;5132160;27;20227;-81
2022/05/30 04:52:01;;;;;;;5.75;3.88;;;;;;;21.40;64.95;94193.75;5113644;27;20193;-79
2022/05/30 04:54:27;;;;;;;5.53;3.80;;;;;;;21.49;64.96;94199.47;5114996;27;20654;-79
2022/05/30 04:56:54;;;;;;;5.47;4.90;;;;;;;21.56;64.89;94200.19;5132537;27;20196;-70
2022/05/30 04:59:21;;;;;;;7.00;4.70;;;;;;;21.63;64.73;94198.31;5132030;27;20207;-71
2022/05/30 05:01:48;;;;;;;5.90;4.63;;;;;;;21.70;64.59;94206.81;5115150;27;20569;-71
2022/05/30 05:04:15;;;;;;;6.15;5.55;;;;;;;21.78;64.14;94211.75;5113692;27;20192;-73
2022/05/30 05:06:44;;;;;;;6.70;4.13;;;;;;;21.93;64.35;94210.56;5109509;27;20193;-75
2022/05/30 05:09:29;;;;;;;5.68;5.10;;;;;;;22.19;67.86;94215.47;5114688;27;20190;-75
2022/05/30 05:11:56;;;;;;;5.07;4.28;;;;;;;22.56;69.69;94210.13;5112588;27;20196;-74
2022/05/30 05:14:23;;;;;;;6.28;4.57;;;;;;;23.00;71.38;94214.06;5126783;27;20282;-74
2022/05/30 05:16:50;;;;;;;4.60;4.20;;;;;;;23.37;72.18;94195.56;5132911;27;20184;-75
2022/05/30 05:19:17;;;;;;;6.90;4.25;;;;;;;24.15;71.72;94219.59;5133086;27;20232;-76
2022/05/30 05:21:46;;;;;;;5.32;4.65;;;;;;;24.81;70.93;94225.19;5133098;27;20200;-78
2022/05/30 05:24:15;;;;;;;4.72;4.05;;;;;;;25.47;70.10;94226.97;5129222;27;20226;-70
2022/05/30 05:26:49;;;;;;;6.75;4.10;;;;;;;26.27;68.23;94224.84;5111966;27;20687;-81
2022/05/30 05:29:17;;;;;;;4.97;4.32;;;;;;;26.98;66.43;94224.69;5111656;28;20618;-80
2022/05/30 05:31:45;;;;;;;5.97;4.00;;;;;;;27.75;64.60;94232.06;5112132;27;20196;-82
2022/05/30 05:34:14;;;;;;;8.23;4.07;;;;;;;28.52;62.92;94229.72;5111627;27;20207;-79
2022/05/30 05:36:44;;;;;;;3.92;3.63;;;;;;;29.26;60.85;94238.97;5111797;28;20250;-71
2022/05/30 05:39:11;;;;;;;5.15;3.67;;;;;;;29.97;58.91;94244.09;5111788;28;20212;-82
2022/05/30 05:41:40;;;;;;;6.85;3.80;;;;;;;30.68;57.18;94242.16;5109300;27;20195;-80
2022/05/30 05:44:09;;;;;;;6.88;4.25;;;;;;;31.36;55.16;94236.94;5111876;28;20380;-82
2022/05/30 05:46:36;;;;;;;5.38;4.00;;;;;;;32.04;53.47;94243.09;5111958;27;20178;-79
2022/05/30 05:49:02;;;;;;;7.28;4.30;;;;;;;32.69;52.13;94249.44;5111541;27;20228;-73
2022/05/30 05:51:29;;;;;;;7.53;4.43;;;;;;;33.32;50.81;94244.75;5111815;28;20589;-76
2022/05/30 05:53:57;;;;;;;6.50;4.50;;;;;;;33.94;49.42;94247.91;5111106;28;20642;-76
2022/05/30 05:56:26;;;;;;;7.32;4.13;;;;;;;34.54;47.90;94249.63;5111900;28;20643;-83
2022/05/30 05:58:53;;;;;;;8.35;4.68;;;;;;;35.12;46.77;94248.88;5112020;28;20227;-79
2022/05/30 06:01:24;;;;;;;6.85;4.72;;;;;;;35.67;45.33;94253.91;5111676;28;20203;-76
2022/05/30 06:03:53;;;;;;;7.28;4.85;;;;;;;36.12;44.28;94245.78;5109285;28;20182;-69
2022/05/30 06:06:20;;;;;;;5.78;4.70;;;;;;;36.70;43.28;94254.50;5111676;27;20189;-69
2022/05/30 06:08:47;;;;;;;6.53;5.25;;;;;;;37.16;42.23;94257.34;5110995;28;20620;-69
2022/05/30 06:11:15;;;;;;;5.38;4.75;;;;;;;37.60;41.08;94255.38;5110897;28;20201;-72
2022/05/30 06:13:44;;;;;;;10.95;4.90;;;;;;;38.01;40.44;94266.56;5111291;28;20218;-78
2022/05/30 06:16:13;;;;;;;6.03;4.97;;;;;;;38.37;39.76;94266.88;5110483;27;20177;-84
2022/05/30 06:18:41;;;;;;;6.88;4.40;;;;;;;38.74;38.92;94277.00;5110662;27;20205;-73
2022/05/30 06:21:09;;;;;;;11.98;5.10;;;;;;;39.03;38.23;94276.16;5110631;28;20181;-74
2022/05/30 06:23:36;;;;;;;6.88;4.95;;;;;;;39.31;37.12;94274.53;5111249;27;20200;-75
2022/05/30 06:26:05;;;;;;;5.53;4.18;;;;;;;39.64;36.69;94282.53;5110295;28;20200;-69
2022/05/30 06:28:33;;;;;;;5.80;4.72;;;;;;;39.87;36.33;94288.28;5111308;27;20184;-78
2022/05/30 06:30:59;;;;;;;7.15;4.40;;;;;;;40.09;36.08;94283.59;5112654;27;20581;-71
2022/05/30 06:33:26;;;;;;;12.60;4.95;;;;;;;40.34;35.68;94287.09;5111015;28;20185;-75
2022/05/30 06:35:54;;;;;;;6.05;4.68;;;;;;;40.56;35.10;94286.66;5111222;27;20219;-83
2022/05/30 06:38:21;;;;;;;4.95;4.28;;;;;;;40.72;34.99;94278.69;5111707;27;20184;-73
2022/05/30 06:40:48;;;;;;;6.88;4.57;;;;;;;40.93;34.67;94288.44;5109168;28;20223;-69
2022/05/30 06:43:15;;;;;;;9.68;4.78;;;;;;;41.12;34.43;94294.03;5110735;27;20473;-75
2022/05/30 06:45:47;;;;;;;7.43;4.50;;;;;;;41.33;33.89;94291.13;5110433;28;20185;-70
2022/05/30 06:48:14;;;;;;;7.25;4.60;;;;;;;41.50;33.98;94298.91;5110274;28;20227;-69
2022/05/30 06:50:42;;;;;;;6.72;4.93;;;;;;;41.56;33.63;94296.75;5110318;28;20206;-75
2022/05/30 06:53:10;;;;;;;5.95;4.25;;;;;;;41.54;32.88;94290.94;5109956;28;20252;-78
2022/05/30 06:55:37;;;;;;;10.05;4.78;;;;;;;41.59;32.78;94299.53;5110594;27;20187;-79
2022/05/30 06:58:13;;;;;;;7.68;4.25;;;;;;;41.55;32.25;94300.56;5109999;28;20207;-74
2022/05/30 07:00:41;;;;;;;6.03;4.68;;;;;;;41.42;32.29;94305.22;5108797;28;20581;-77
2022/05/30 07:03:08;;;;;;;7.65;4.65;;;;;;;41.25;32.42;94308.94;5107210;28;20189;-76
2022/05/30 07:05:35;;;;;;;6.82;4.57;;;;;;;41.01;32.53;94309.81;5108380;27;20199;-80
2022/05/30 07:08:02;;;;;;;6.28;4.68;;;;;;;40.56;32.24;94305.41;5107631;28;20224;-79
2022/05/30 07:10:31;;;;;;;4.28;3.88;;;;;;;40.29;31.81;94312.22;5108392;28;20200;-80
2022/05/30 07:12:59;;;;;;;8.57;4.22;;;;;;;40.20;32.60;94314.25;5108373;28;20378;-76
2022/05/30 07:15:26;;;;;;;7.22;4.30;;;;;;;40.16;33.56;94297.28;5111231;27;20216;-82
2022/05/30 07:17:53;;;;;;;5.43;4.68;;;;;;;40.33;33.90;94313.13;5108479;28;20594;-82
2022/05/30 07:20:21;;;;;;;6.30;4.60;;;;;;;40.43;33.47;94311.09;5107567;28;20294;-76
2022/05/30 07:22:47;;;;;;;6.30;4.43;;;;;;;40.38;33.39;94299.50;5107326;28;20212;-78
2022/05/30 07:25:14;;;;;;;7.05;5.22;;;;;;;40.41;33.32;94313.31;5107807;27;20196;-80
2022/05/30 07:27:43;;;;;;;4.60;4.13;;;;;;;40.38;33.11;94293.34;5106183;28;20196;-74
2022/05/30 07:30:10;;;;;;;4.90;4.50;;;;;;;40.48;33.08;94302.81;5107998;28;20189;-80
2022/05/30 07:32:37;;;;;;;5.93;4.50;;;;;;;40.52;33.32;94309.09;5107693;28;20197;-79
2022/05/30 07:35:04;;;;;;;5.47;4.30;;;;;;;40.58;33.94;94303.16;5105763;28;20212;-83
2022/05/30 07:37:31;;;;;;;5.05;4.55;;;;;;;40.70;33.84;94304.28;5105969;28;20250;-77
2022/05/30 07:39:58;;;;;;;8.82;4.80;;;;;;;40.83;33.96;94311.19;5109411;28;20216;-83
2022/05/30 07:42:25;;;;;;;6.68;5.10;;;;;;;40.99;34.19;94308.59;5107654;28;20201;-78
2022/05/30 07:44:54;;;;;;;6.07;4.88;;;;;;;41.15;33.93;94311.31;5107547;28;20189;-86
2022/05/30 07:47:20;;;;;;;6.75;4.20;;;;;;;41.27;33.43;94305.91;5112496;28;20192;-83
2022/05/30 07:49:47;;;;;;;6.18;4.88;;;;;;;41.33;33.56;94310.72;5113362;27;20220;-81
2022/05/30 07:52:15;;;;;;;8.07;4.80;;;;;;;41.35;32.53;94313.03;5114855;28;20203;-72
2022/05/30 07:54:43;;;;;;;6.13;5.22;;;;;;;41.33;33.14;94299.19;5114408;28;20200;-79
2022/05/30 07:57:10;;;;;;;5.25;4.72;;;;;;;41.38;32.84;94309.72;5114272;27;20212;-82
2022/05/30 07:59:37;;;;;;;9.77;5.05;;;;;;;41.39;32.73;94310.50;5114347;28;20219;-74
2022/05/30 08:02:07;;;;;;;5.90;5.03;;;;;;;41.35;32.62;94313.03;5114792;27;20188;-80
2022/05/30 08:04:35;;;;;;;6.18;4.43;;;;;;;41.36;32.80;94317.28;5113539;28;20692;-77
2022/05/30 08:07:04;;;;;;;5.35;4.85;;;;;;;41.33;31.98;94316.06;5114388;28;20185;-78
2022/05/30 08:09:31;;;;;;;5.80;4.82;;;;;;;41.34;32.02;94325.69;5116010;27;20676;-77
2022/05/30 08:11:59;;;;;;;10.32;5.18;;;;;;;41.28;32.27;94315.53;5113199;28;20192;-80
2022/05/30 08:14:26;;;;;;;11.95;4.90;;;;;;;41.28;31.74;94321.69;5116733;27;20206;-80
2022/05/30 08:16:52;;;;;;;5.97;4.60;;;;;;;41.25;31.65;94319.69;5112296;28;20593;-77
2022/05/30 08:19:21;;;;;;;6.40;4.80;;;;;;;41.22;32.04;94319.59;5116356;27;20223;-81
2022/05/30 08:21:47;;;;;;;11.60;4.90;;;;;;;41.15;31.51;94320.16;5115774;27;20207;-78
2022/05/30 08:24:14;;;;;;;7.40;5.10;;;;;;;41.08;31.50;94314.59;5113412;28;20216;-82
2022/05/30 08:26:41;;;;;;;4.70;4.30;;;;;;;41.10;30.93;94318.50;5113786;28;20192;-78
2022/05/30 08:29:08;;;;;;;11.15;4.50;;;;;;;40.89;31.39;94293.72;5113204;27;20187;-76
2022/05/30 08:31:35;;;;;;;9.82;4.72;;;;;;;40.97;30.81;94318.88;5112738;28;20602;-74
2022/05/30 08:34:01;;;;;;;5.47;4.97;;;;;;;40.85;31.05;94322.38;5112559;28;20253;-75
2022/05/30 08:36:30;;;;;;;5.68;4.43;;;;;;;40.74;30.85;94311.31;5112080;28;20583;-71
2022/05/30 08:41:49;;;;;;;5.80;5.03;;;;;;;40.48;31.19;94314.34;5112328;28;20234;-73
2022/05/30 08:44:17;;;;;;;7.00;5.47;;;;;;;40.30;30.93;94321.81;5111764;27;20657;-77
2022/05/30 08:46:56;;;;;;;6.63;5.53;;;;;;;40.15;30.69;94310.97;5109959;28;20204;-76
2022/05/30 08:49:28;;;;;;;6.35;5.25;;;;;;;40.06;30.83;94311.84;5109754;28;20236;-75
2022/05/30 08:52:26;;;;;;;8.05;4.75;;;;;;;39.96;31.35;94312.28;5109961;28;20289;-73
2022/05/30 08:55:04;;;;;;;6.20;4.90;;;;;;;39.83;31.19;94316.06;5109700;28;20238;-77
2022/05/30 08:57:42;;;;;;;7.38;5.03;;;;;;;39.71;31.58;94316.03;5107187;28;20197;-73
2022/05/30 09:00:14;;;;;;;5.47;4.70;;;;;;;39.57;31.68;94314.41;5108583;28;20212;-73
2022/05/30 09:02:48;;;;;;;5.75;4.93;;;;;;;39.47;31.61;94317.53;5109816;28;20185;-74
2022/05/30 09:05:18;;;;;;;6.30;4.85;;;;;;;39.33;31.54;94323.13;5110186;28;20666;-72
2022/05/30 09:07:51;;;;;;;10.32;4.70;;;;;;;39.22;31.84;94322.00;5109118;28;20197;-73
2022/05/30 09:10:24;;;;;;;7.47;4.63;;;;;;;39.10;31.74;94324.56;5109402;28;20189;-74
2022/05/30 09:12:55;;;;;;;5.50;5.00;;;;;;;38.95;31.50;94331.31;5109512;28;20217;-73
2022/05/30 09:15:26;;;;;;;5.88;4.75;;;;;;;38.83;31.46;94325.88;5109421;28;20481;-73
2022/05/30 09:17:59;;;;;;;6.07;5.13;;;;;;;38.70;32.09;94333.03;5109725;28;20193;-74
2022/05/30 09:20:26;;;;;;;7.35;4.97;;;;;;;38.52;31.98;94329.69;5109398;28;20215;-77
2022/05/30 09:22:54;;;;;;;7.40;5.47;;;;;;;38.38;32.46;94323.75;5109858;28;20189;-74
2022/05/30 09:28:09;;;;;;;6.80;4.75;;;;;;;38.04;32.51;94330.00;5109039;28;20289;-75
2022/05/30 09:30:45;;;;;;;7.05;5.00;;;;;;;37.85;32.92;94333.84;5109675;28;20196;-72
2022/05/30 09:33:23;;;;;;;6.47;4.72;;;;;;;37.72;32.70;94344.69;5108562;28;20196;-74
2022/05/30 09:35:50;;;;;;;9.00;4.70;;;;;;;37.50;33.22;94333.13;5108164;28;20200;-73
2022/05/30 09:38:23;;;;;;;7.55;4.70;;;;;;;37.37;33.33;94340.16;5112097;27;20267;-77
2022/05/30 09:40:54;;;;;;;7.43;4.38;;;;;;;37.23;33.56;94339.56;5113988;27;20204;-71
2022/05/30 09:43:28;;;;;;;9.50;4.75;;;;;;;37.02;33.74;94323.41;5111704;28;20279;-72
2022/05/30 09:45:55;;;;;;;5.75;5.15;;;;;;;36.92;33.90;94335.16;5111915;28;20189;-75
2022/05/30 09:48:23;;;;;;;7.50;5.28;;;;;;;36.77;34.19;94332.91;5111369;27;21095;-79
2022/05/30 09:50:52;;;;;;;7.90;4.43;;;;;;;36.61;34.12;94329.13;5111244;28;20193;-85
2022/05/30 09:53:42;;;;;;;6.82;5.25;;;;;;;36.40;33.94;94332.34;5108415;27;20208;-77
2022/05/30 09:56:11;;;;;;;7.55;5.78;;;;;;;36.24;34.18;94336.53;5110965;27;20183;-75
2022/05/30 09:58:45;;;;;;;8.30;5.20;;;;;;;36.08;34.58;94330.81;5111296;28;20283;-77
2022/05/30 10:01:12;;;;;;;5.82;5.00;;;;;;;35.92;34.58;94326.94;5109874;28;20236;-75
2022/05/30 10:03:42;;;;;;;6.30;4.93;;;;;;;35.77;34.87;94330.81;5110089;28;20660;-76
2022/05/30 10:06:15;;;;;;;5.82;4.90;;;;;;;35.64;35.12;94327.13;5110752;28;20193;-75
2022/05/30 10:08:44;;;;;;;6.05;5.28;;;;;;;35.51;35.46;94329.88;5110909;28;20204;-73
2022/05/30 10:11:27;;;;;;;7.80;5.13;;;;;;;35.37;35.51;94320.06;5111104;28;20204;-72
2022/05/30 10:13:54;;;;;;;6.78;4.70;;;;;;;35.23;35.53;94329.16;5109864;28;20185;-75
2022/05/30 10:16:31;;;;;;;8.90;5.30;;;;;;;35.11;35.56;94319.88;5111119;27;20184;-74
2022/05/30 10:19:02;;;;;;;9.95;5.20;;;;;;;34.99;35.73;94327.59;5111070;28;20272;-75
2022/05/30 10:28:14;;;;;;;5.60;5.10;;;;;;;34.86;36.23;94321.19;5110903;28;20213;-75
2022/05/30 10:30:20;;;;;;;8.25;4.93;;;;;;;34.41;36.65;94320.25;5107739;28;20184;-72
2022/05/30 10:32:58;;;;;;;6.90;4.63;;;;;;;34.33;36.77;94313.00;5110470;28;20721;-73
2022/05/30 10:35:33;;;;;;;7.53;5.45;;;;;;;34.29;36.79;94323.44;5110247;28;20189;-72
2022/05/30 10:38:19;;;;;;;9.50;4.95;;;;;;;34.19;37.15;94319.09;5108713;27;20188;-74
2022/05/30 10:41:10;;;;;;;7.03;4.90;;;;;;;34.07;36.72;94321.47;5108044;28;20220;-72
2022/05/30 10:43:47;;;;;;;10.85;4.75;;;;;;;34.00;37.16;94317.63;5109915;28;20729;-72
2022/05/30 10:46:18;;;;;;;5.60;4.85;;;;;;;33.91;37.26;94325.44;5109914;28;20220;-72
2022/05/30 10:48:55;;;;;;;8.80;4.88;;;;;;;33.82;37.18;94321.91;5111009;27;20249;-73
2022/05/30 10:51:24;;;;;;;8.32;5.20;;;;;;;33.70;36.74;94322.38;5109574;28;20181;-72
2022/05/30 10:53:57;;;;;;;8.05;5.00;;;;;;;33.60;37.18;94325.19;5110464;27;20184;-74
2022/05/30 10:56:29;;;;;;;7.15;4.53;;;;;;;33.50;37.57;94320.84;5110513;28;20280;-77
2022/05/30 10:59:04;;;;;;;11.35;5.13;;;;;;;33.40;37.96;94313.03;5110296;28;20193;-76
2022/05/30 11:01:41;;;;;;;7.28;4.80;;;;;;;33.37;37.66;94318.91;5106452;28;20669;-73
2022/05/30 11:04:19;;;;;;;7.18;5.22;;;;;;;33.29;38.12;94315.06;5110364;28;20200;-74
2022/05/30 11:06:49;;;;;;;6.82;5.25;;;;;;;33.23;38.08;94318.84;5109943;28;20203;-74
2022/05/30 11:09:22;;;;;;;8.90;4.53;;;;;;;33.16;38.35;94313.13;5109634;28;20610;-76
2022/05/30 11:12:00;;;;;;;5.13;4.50;;;;;;;33.08;38.75;94314.59;5110377;28;20205;-72
2022/05/30 11:14:35;;;;;;;6.38;4.78;;;;;;;33.05;38.95;94320.47;5110598;28;20207;-74
2022/05/30 11:17:10;;;;;;;8.38;5.05;;;;;;;32.98;38.89;94314.72;5108590;28;20650;-74
2022/05/30 11:19:56;;;;;;;5.20;4.68;;;;;;;32.92;38.85;94315.88;5107601;28;20196;-73
2022/05/30 11:22:33;;;;;;;9.38;4.32;;;;;;;32.79;38.71;94309.41;5108439;28;20200;-80
2022/05/30 11:25:00;;;;;;;6.47;4.63;;;;;;;32.78;39.03;94315.00;5110199;28;20188;-74
2022/05/30 11:27:37;;;;;;;8.07;5.25;;;;;;;32.72;39.09;94317.69;5109645;28;20193;-73
2022/05/30 11:30:35;;;;;;;5.85;4.70;;;;;;;32.63;38.42;94314.13;5109046;28;20193;-76
2022/05/30 11:33:40;;;;;;;5.65;4.95;;;;;;;32.53;38.67;94310.81;5107524;28;20192;-73
2022/05/30 11:36:43;;;;;;;8.57;4.75;;;;;;;32.42;38.63;94321.53;5109326;28;20189;-75
2022/05/30 11:39:23;;;;;;;5.15;4.65;;;;;;;32.35;39.01;94313.13;5046452;28;20197;-74
2022/05/30 11:42:01;;;;;;;7.28;5.00;;;;;;;32.30;38.98;94307.09;5045074;28;20284;-76
2022/05/30 11:44:47;;;;;;;7.22;4.50;;;;;;;32.22;39.40;94311.19;5044509;28;20651;-75
2022/05/30 11:47:30;;;;;;;7.05;4.82;;;;;;;32.18;39.63;94307.50;5045316;28;20190;-74
2022/05/30 11:50:08;;;;;;;6.13;4.65;;;;;;;32.10;39.36;94303.63;5046875;28;20233;-77
2022/05/30 11:52:46;;;;;;;5.60;4.55;;;;;;;32.03;39.43;94300.53;5046515;28;20222;-75
2022/05/30 11:55:21;;;;;;;7.18;5.05;;;;;;;31.93;39.03;94290.84;5044369;28;20214;-75
2022/05/30 11:57:51;;;;;;;6.82;4.70;;;;;;;31.88;39.60;94298.06;5046823;28;20197;-74
2022/05/30 12:00:30;;;;;;;9.73;4.70;;;;;;;31.85;38.65;94304.69;5046051;28;20206;-74
2022/05/30 12:03:18;;;;;;;6.03;4.22;;;;;;;31.77;38.60;94302.63;5030133;28;20203;-73
2022/05/30 12:06:26;;;;;;;9.38;4.57;;;;;;;31.69;39.05;94297.94;5046220;28;20622;-73
2022/05/30 12:09:18;;;;;;;6.47;4.60;;;;;;;31.62;39.83;94300.91;5044020;28;20246;-74
2022/05/30 12:12:20;;;;;;;5.40;4.40;;;;;;;31.58;39.54;94299.13;5046360;28;20195;-76